Fulton, New York
Current Conditions -  °F | °C
As of 7:54 AM on Saturday 20 Dec 2014 (Local Time) from KFZY Reporting Station
Overcast Overcast  
Wind Chill: 21°   Ceiling: 1600
Heat Index: 21°   Visibility: 10mi
Dew Point: 16°   Wind: 3mph
Humidity: 81%   Direction: 20°NNE
Pressure: 30.3"   Gusts: NA
Location:  43.32°N, 76.41°W
Report Text: KFZY 201254Z AUTO 02003KT 10SM OVC016 M06/M09 A3030 RMK AO2 SLP267 T10611089
Loading
Personal Weather Stations






























Interactive Weather Map New forecast layout! Learn more

10-Day Weather Forecast

Advertisements
Track Severe Weather on mobile